Time;durP1;ratioP1;P1;durP2;ratioP2;P2;SDS_P1;SDS_P2;PMS_P1;PMS_P2;Temp;Humidity;BMP_temperature;BMP_pressure;BME280_temperature;BME280_humidity;BME280_pressure;Samples;Min_cycle;Max_cycle;Signal;HPM_P1;HPM_P2
2022/11/11 00:00:14;;;;;;;17.60;11.65;;;;;;;8.60;100.00;102789.75;4977657;28;20088;-78
2022/11/11 00:02:40;;;;;;;14.55;11.23;;;;;;;8.63;100.00;102790.50;4993336;28;20030;-76
2022/11/11 00:05:06;;;;;;;16.83;12.45;;;;;;;8.67;100.00;102792.13;4992749;28;20045;-76
2022/11/11 00:07:34;;;;;;;17.10;12.25;;;;;;;8.70;100.00;102792.00;4993226;28;20030;-76
2022/11/11 00:09:59;;;;;;;14.73;11.93;;;;;;;8.70;100.00;102797.25;4994057;28;20023;-78
2022/11/11 00:12:25;;;;;;;14.50;12.15;;;;;;;8.71;100.00;102793.72;4987886;28;20050;-76
2022/11/11 00:14:51;;;;;;;20.00;13.60;;;;;;;8.74;100.00;102800.63;4997811;28;20477;-76
2022/11/11 00:25:27;;;;;;;17.10;13.88;;;;;;;8.81;100.00;102788.19;4972988;28;20093;-84
2022/11/11 00:27:53;;;;;;;19.67;14.90;;;;;;;8.81;100.00;102788.19;4972606;28;20475;-76
2022/11/11 00:30:19;;;;;;;18.75;14.95;;;;;;;8.82;100.00;102789.88;4978710;28;20117;-76
2022/11/11 00:32:44;;;;;;;17.90;15.00;;;;;;;8.84;100.00;102799.41;4992153;28;20033;-77
2022/11/11 00:40:58;;;;;;;21.95;15.02;;;;;;;8.87;100.00;102798.44;4949862;29;20074;-84
2022/11/11 00:43:23;;;;;;;18.23;15.00;;;;;;;8.88;100.00;102801.03;4967952;28;20046;-85
2022/11/11 00:45:49;;;;;;;19.65;15.05;;;;;;;8.89;100.00;102801.88;4992279;28;20483;-77
2022/11/11 00:50:59;;;;;;;19.95;15.30;;;;;;;8.91;100.00;102813.19;4991578;28;20130;-76
2022/11/11 00:53:27;;;;;;;20.30;15.30;;;;;;;8.92;100.00;102812.28;4992752;28;20514;-76
2022/11/11 00:55:54;;;;;;;18.95;14.48;;;;;;;8.93;100.00;102813.97;4992056;28;20030;-77
2022/11/11 00:58:21;;;;;;;20.60;15.93;;;;;;;8.95;100.00;102817.41;4992612;28;20026;-84
2022/11/11 01:00:49;;;;;;;20.83;15.20;;;;;;;8.96;100.00;102819.13;4991202;28;20495;-86
2022/11/11 01:03:15;;;;;;;20.98;15.95;;;;;;;8.96;100.00;102813.88;4991069;28;20433;-77
2022/11/11 01:05:40;;;;;;;18.25;16.13;;;;;;;8.98;100.00;102817.28;4991232;28;20650;-77
2022/11/11 01:08:06;;;;;;;19.48;15.48;;;;;;;8.99;100.00;102833.00;4989888;28;20037;-76
2022/11/11 01:10:40;;;;;;;25.58;15.77;;;;;;;8.98;100.00;102830.44;4991314;28;20057;-76
2022/11/11 01:13:19;;;;;;;18.05;15.02;;;;;;;9.04;100.00;102838.06;5007270;28;20490;-76
2022/11/11 01:15:49;;;;;;;19.88;15.55;;;;;;;9.03;100.00;102837.22;4985373;28;20034;-76
2022/11/11 01:18:16;;;;;;;21.08;15.38;;;;;;;9.04;100.00;102838.06;4991221;28;20589;-76
2022/11/11 01:20:43;;;;;;;20.25;15.30;;;;;;;9.02;100.00;102832.03;4990741;28;20027;-76
2022/11/11 01:23:11;;;;;;;20.10;15.38;;;;;;;9.06;100.00;102838.88;4990940;28;20018;-85
2022/11/11 01:25:39;;;;;;;20.25;15.63;;;;;;;9.06;100.00;102833.63;4990824;28;20026;-85
2022/11/11 01:28:05;;;;;;;24.42;15.57;;;;;;;9.05;100.00;102830.16;4991347;28;20026;-77
2022/11/11 01:30:35;;;;;;;17.17;15.15;;;;;;;9.05;100.00;102832.78;4990775;28;20038;-85
2022/11/11 01:33:01;;;;;;;22.33;16.45;;;;;;;9.03;100.00;102825.84;4991019;28;20495;-77
2022/11/11 01:35:27;;;;;;;20.67;16.08;;;;;;;9.06;100.00;102825.75;4991980;28;20034;-77
2022/11/11 01:37:52;;;;;;;20.35;15.57;;;;;;;9.08;100.00;102823.94;4988666;28;20125;-76
2022/11/11 01:40:18;;;;;;;19.17;16.15;;;;;;;9.10;100.00;102827.34;4991125;28;20467;-76
2022/11/11 01:42:48;;;;;;;19.35;16.15;;;;;;;9.09;100.00;102828.25;4989975;28;20501;-77
2022/11/11 01:45:51;;;;;;;23.77;16.75;;;;;;;9.11;100.00;102823.81;4991721;28;20034;-77
2022/11/11 01:51:13;;;;;;;22.65;16.27;;;;;;;9.10;100.00;102816.84;4990966;28;20053;-85
2022/11/11 01:53:40;;;;;;;20.73;16.27;;;;;;;9.08;100.00;102810.78;4991134;28;20030;-77
2022/11/11 01:56:08;;;;;;;21.35;16.58;;;;;;;9.07;100.00;102806.47;4989315;28;20121;-76
2022/11/11 01:58:33;;;;;;;21.88;16.65;;;;;;;9.08;100.00;102808.16;4990523;28;20030;-76
2022/11/11 02:01:00;;;;;;;24.48;17.40;;;;;;;9.06;100.00;102816.09;4991602;28;20541;-76
2022/11/11 02:03:29;;;;;;;21.80;16.52;;;;;;;9.06;100.00;102815.25;4991616;28;20054;-76
2022/11/11 02:05:56;;;;;;;23.45;17.33;;;;;;;9.05;100.00;102822.28;4991751;28;20022;-76
2022/11/11 02:08:31;;;;;;;21.20;17.25;;;;;;;9.05;100.00;102813.53;4992152;28;20019;-76
2022/11/11 02:14:34;;;;;;;21.73;17.52;;;;;;;9.05;100.00;102814.38;4989678;28;20102;-76
2022/11/11 02:16:50;;;;;;;20.63;16.77;;;;;;;9.04;100.00;102811.81;4970484;28;20415;-76
2022/11/11 02:19:22;;;;;;;23.13;16.65;;;;;;;9.02;100.00;102805.78;5012395;28;20035;-76
2022/11/11 02:21:58;;;;;;;23.77;16.85;;;;;;;9.04;100.00;102798.69;5001794;28;20019;-84
2022/11/11 02:24:26;;;;;;;18.60;16.60;;;;;;;9.04;100.00;102799.53;4979934;28;20035;-77
2022/11/11 02:26:54;;;;;;;24.17;16.88;;;;;;;9.03;100.00;102799.59;4989274;28;20033;-77
2022/11/11 02:29:21;;;;;;;23.77;16.60;;;;;;;9.01;100.00;102786.53;4992458;28;20157;-77
2022/11/11 02:31:46;;;;;;;22.08;16.83;;;;;;;9.02;100.00;102776.88;5006728;28;20084;-77
2022/11/11 02:34:12;;;;;;;25.95;17.10;;;;;;;9.01;100.00;102781.28;4990306;28;20124;-77
2022/11/11 02:36:39;;;;;;;22.05;16.45;;;;;;;8.99;100.00;102775.22;4990996;28;20041;-85
2022/11/11 02:39:05;;;;;;;23.70;15.80;;;;;;;8.98;100.00;102773.53;4992259;28;20030;-78
2022/11/11 02:44:15;;;;;;;23.52;15.77;;;;;;;8.96;100.00;102787.63;4989273;28;20614;-77
2022/11/11 02:46:40;;;;;;;24.02;15.18;;;;;;;8.93;100.00;102787.72;4990971;28;20022;-78
2022/11/11 02:49:05;;;;;;;19.38;15.43;;;;;;;8.90;100.00;102782.59;4991373;28;20026;-77
2022/11/11 02:51:33;;;;;;;20.60;16.30;;;;;;;8.89;100.00;102780.88;4990783;28;20181;-78
2022/11/11 02:53:59;;;;;;;19.90;15.05;;;;;;;8.89;100.00;102780.88;4990033;28;20506;-78
2022/11/11 02:59:08;;;;;;;23.42;15.55;;;;;;;8.88;100.00;102773.91;4990788;28;20036;-78
2022/11/11 03:01:33;;;;;;;17.42;14.35;;;;;;;8.84;100.00;102764.44;4982929;28;20018;-76
2022/11/11 03:03:59;;;;;;;19.23;15.35;;;;;;;8.85;100.00;102772.25;5005705;28;20053;-75
2022/11/11 03:06:24;;;;;;;17.75;14.32;;;;;;;8.84;100.00;102767.94;4990835;28;20081;-76
2022/11/11 03:08:49;;;;;;;18.08;14.23;;;;;;;8.84;100.00;102769.69;4989422;28;20022;-76
2022/11/11 03:11:15;;;;;;;23.17;15.20;;;;;;;8.83;100.00;102770.59;4990206;28;20483;-76
2022/11/11 03:13:40;;;;;;;21.92;14.70;;;;;;;8.81;100.00;102770.66;4989822;28;20150;-76
2022/11/11 03:17:37;;;;;;;19.15;14.18;;;;;;;8.81;100.00;102768.03;4986895;28;20026;-78
2022/11/11 03:18:51;;;;;;;20.52;13.60;;;;;;;8.81;100.00;102761.94;4986474;28;20100;-76
2022/11/11 03:21:16;;;;;;;20.00;14.63;;;;;;;8.82;100.00;102774.13;4989826;28;20179;-76
2022/11/11 03:23:41;;;;;;;18.40;14.00;;;;;;;8.81;100.00;102773.28;4974201;28;20057;-76
2022/11/11 03:26:07;;;;;;;17.65;13.98;;;;;;;8.80;100.00;102784.66;4971150;28;20438;-86
2022/11/11 03:28:33;;;;;;;19.02;14.25;;;;;;;8.77;100.00;102788.25;4972767;28;20031;-76
2022/11/11 03:30:58;;;;;;;17.10;13.52;;;;;;;8.78;100.00;102795.22;4972884;28;20446;-77
2022/11/11 03:33:23;;;;;;;17.70;14.07;;;;;;;8.79;100.00;102786.44;4990181;28;20039;-76
2022/11/11 03:35:49;;;;;;;19.88;14.43;;;;;;;8.77;100.00;102793.50;5004159;28;20475;-86
2022/11/11 03:38:32;;;;;;;19.33;14.48;;;;;;;8.76;100.00;102789.16;4989660;28;20037;-77
2022/11/11 03:40:58;;;;;;;17.05;14.13;;;;;;;8.79;100.00;102789.06;4988351;28;20041;-85
2022/11/11 03:43:26;;;;;;;17.42;13.57;;;;;;;8.77;100.00;102784.78;4989315;28;20034;-78
2022/11/11 03:45:54;;;;;;;19.27;13.93;;;;;;;8.75;100.00;102779.56;4989050;28;20026;-84
2022/11/11 03:48:20;;;;;;;17.77;13.85;;;;;;;8.74;100.00;102783.13;4988478;28;20659;-84
2022/11/11 03:50:46;;;;;;;20.05;13.98;;;;;;;8.73;100.00;102781.41;4988149;28;20023;-79
2022/11/11 03:53:13;;;;;;;19.73;14.20;;;;;;;8.72;100.00;102779.69;4989212;28;20030;-76
2022/11/11 03:55:40;;;;;;;22.08;14.35;;;;;;;8.72;100.00;102779.69;4989055;28;20018;-78
2022/11/11 03:58:05;;;;;;;18.48;13.95;;;;;;;8.72;100.00;102770.97;4991190;28;20471;-78
2022/11/11 04:00:33;;;;;;;19.70;14.50;;;;;;;8.68;100.00;102772.84;4992950;28;20076;-78
2022/11/11 04:11:32;;;;;;;17.73;14.20;;;;;;;8.64;100.00;102781.72;4989006;28;20558;-77
2022/11/11 04:16:49;;;;;;;20.05;13.77;;;;;;;8.60;100.00;102788.00;4992788;28;20041;-76
2022/11/11 04:21:58;;;;;;;18.42;13.82;;;;;;;8.55;100.00;102795.16;4993167;28;20097;-76
2022/11/11 04:27:13;;;;;;;18.85;14.68;;;;;;;8.51;100.00;102793.56;4973686;28;20442;-76
2022/11/11 04:29:38;;;;;;;19.80;14.52;;;;;;;8.52;100.00;102789.19;4972859;28;20027;-77
2022/11/11 04:34:52;;;;;;;19.75;15.13;;;;;;;8.49;100.00;102792.75;4991927;28;20326;-84
2022/11/11 04:37:19;;;;;;;22.52;15.93;;;;;;;8.48;100.00;102801.53;4976514;28;20526;-77
2022/11/11 04:42:36;;;;;;;19.83;15.90;;;;;;;8.48;100.00;102796.28;4993356;28;20093;-77
2022/11/11 04:48:06;;;;;;;19.50;15.73;;;;;;;8.45;100.00;102796.41;4991749;28;20041;-77
2022/11/11 04:50:34;;;;;;;18.65;15.70;;;;;;;8.40;100.00;102798.28;4991297;28;20034;-77
2022/11/11 04:53:01;;;;;;;20.55;15.90;;;;;;;8.39;100.00;102796.59;4991535;28;20053;-76
2022/11/11 04:58:11;;;;;;;18.02;15.50;;;;;;;8.38;100.00;102792.25;4992214;28;20180;-76
2022/11/11 05:00:37;;;;;;;19.17;15.18;;;;;;;8.40;100.00;102793.03;4990707;28;20116;-77
2022/11/11 05:03:15;;;;;;;21.48;16.00;;;;;;;8.39;100.00;102792.19;4991835;28;20037;-77
2022/11/11 05:11:11;;;;;;;19.23;15.52;;;;;;;8.29;100.00;102797.78;4991519;28;20145;-77
2022/11/11 05:22:20;;;;;;;18.95;15.10;;;;;;;8.23;100.00;102790.09;4980262;28;20126;-84
2022/11/11 05:27:29;;;;;;;20.63;14.95;;;;;;;8.09;100.00;102788.81;4991474;28;20073;-86
2022/11/11 05:29:55;;;;;;;22.05;15.30;;;;;;;8.06;100.00;102798.53;4990042;28;20053;-85
2022/11/11 05:32:22;;;;;;;16.35;14.63;;;;;;;8.06;100.00;102794.16;4991743;28;20469;-85
2022/11/11 05:34:48;;;;;;;18.15;15.07;;;;;;;8.05;100.00;102805.53;4990359;28;20030;-85
2022/11/11 05:37:14;;;;;;;23.10;14.95;;;;;;;8.00;100.00;102804.81;4991913;28;20471;-85
2022/11/11 05:39:40;;;;;;;20.38;14.95;;;;;;;8.00;100.00;102803.94;4988632;28;20061;-77
2022/11/11 05:42:06;;;;;;;18.17;14.80;;;;;;;8.02;100.00;102803.03;4990942;28;20490;-78
2022/11/11 05:44:35;;;;;;;18.25;14.82;;;;;;;8.02;100.00;102804.78;4991466;28;20442;-76
2022/11/11 05:47:03;;;;;;;18.20;13.90;;;;;;;7.98;100.00;102809.25;4990385;28;20037;-76
2022/11/11 05:49:29;;;;;;;18.40;14.52;;;;;;;7.97;100.00;102799.66;4998326;28;20022;-76
2022/11/11 05:51:55;;;;;;;17.92;14.80;;;;;;;7.93;100.00;102795.44;5003917;28;20030;-84
2022/11/11 05:54:21;;;;;;;21.02;16.50;;;;;;;7.89;100.00;102793.81;5009937;28;20372;-85
2022/11/11 05:56:47;;;;;;;22.88;15.80;;;;;;;7.84;100.00;102793.09;4997028;28;20018;-84
2022/11/11 05:59:12;;;;;;;18.60;15.27;;;;;;;7.84;100.00;102787.84;4996220;28;20471;-85
2022/11/11 06:01:38;;;;;;;18.52;16.10;;;;;;;7.79;100.00;102803.72;4990666;28;20471;-84
2022/11/11 06:04:04;;;;;;;18.85;15.45;;;;;;;7.74;100.00;102792.53;4989550;28;20029;-85
2022/11/11 06:06:33;;;;;;;19.83;16.92;;;;;;;7.73;100.00;102805.69;4991607;28;20032;-84
2022/11/11 06:08:59;;;;;;;17.83;15.98;;;;;;;7.71;100.00;102810.97;5005537;28;20054;-84
2022/11/11 06:11:24;;;;;;;20.85;16.27;;;;;;;7.72;100.00;102810.06;4989643;28;20056;-84
2022/11/11 06:13:50;;;;;;;18.80;16.75;;;;;;;7.71;100.00;102810.97;4987157;28;20361;-83
2022/11/11 06:16:15;;;;;;;21.05;17.05;;;;;;;7.67;100.00;102811.97;4979173;28;20030;-85
2022/11/11 06:18:41;;;;;;;21.17;16.52;;;;;;;7.66;100.00;102815.50;4993262;28;20060;-76
2022/11/11 06:21:06;;;;;;;18.27;15.98;;;;;;;7.63;100.00;102810.34;4995628;28;20367;-77
2022/11/11 06:23:32;;;;;;;19.85;16.20;;;;;;;7.61;100.00;102812.16;4990371;28;20565;-79
2022/11/11 06:26:13;;;;;;;18.15;16.08;;;;;;;7.61;100.00;102816.53;4990314;28;20486;-85
2022/11/11 06:28:58;;;;;;;22.17;16.60;;;;;;;7.59;100.00;102819.19;4989793;28;20057;-77
2022/11/11 06:31:25;;;;;;;18.75;16.20;;;;;;;7.55;100.00;102834.13;4989297;28;20117;-77
2022/11/11 06:33:51;;;;;;;19.10;16.27;;;;;;;7.52;100.00;102830.75;4989735;28;20038;-77
2022/11/11 06:36:19;;;;;;;17.75;15.95;;;;;;;7.51;100.00;102834.28;5005072;28;20433;-77
2022/11/11 06:38:45;;;;;;;18.50;16.30;;;;;;;7.50;100.00;102835.16;4969440;28;20125;-77
2022/11/11 06:41:12;;;;;;;17.67;15.80;;;;;;;7.44;100.00;102836.22;4970890;28;20102;-79
2022/11/11 06:43:39;;;;;;;19.02;16.75;;;;;;;7.37;100.00;102839.91;4970111;28;20031;-77
2022/11/11 06:46:04;;;;;;;18.38;16.02;;;;;;;7.34;100.00;102834.78;4981772;28;20387;-84
2022/11/11 06:48:33;;;;;;;19.77;16.33;;;;;;;7.30;100.00;102843.63;4996180;28;20030;-85
2022/11/11 06:51:04;;;;;;;21.38;16.70;;;;;;;7.25;100.00;102844.66;4999827;28;20395;-79
2022/11/11 06:53:29;;;;;;;22.00;17.80;;;;;;;7.22;100.00;102848.22;4996919;28;20030;-77
2022/11/11 06:55:55;;;;;;;20.60;16.88;;;;;;;7.18;100.00;102847.41;4995639;28;20048;-85
2022/11/11 06:58:21;;;;;;;19.38;16.75;;;;;;;7.14;100.00;102842.31;4997284;28;20660;-77
2022/11/11 07:00:47;;;;;;;21.05;16.60;;;;;;;7.12;100.00;102844.97;4985457;28;20023;-77
2022/11/11 07:03:14;;;;;;;20.23;17.42;;;;;;;7.13;100.00;102841.44;4985605;28;20030;-77
2022/11/11 07:05:42;;;;;;;19.27;17.25;;;;;;;7.11;100.00;102837.16;4972434;28;20082;-84
2022/11/11 07:08:09;;;;;;;19.38;16.63;;;;;;;7.12;100.00;102838.88;4991878;28;20101;-84
2022/11/11 07:10:37;;;;;;;19.27;15.88;;;;;;;7.13;100.00;102851.06;5008322;28;20033;-84
2022/11/11 07:13:03;;;;;;;20.73;15.90;;;;;;;7.09;100.00;102845.06;4992776;28;20051;-84
2022/11/11 07:15:29;;;;;;;18.23;15.50;;;;;;;7.14;100.00;102847.53;4993378;28;20109;-84
2022/11/11 07:17:55;;;;;;;20.25;14.95;;;;;;;7.12;100.00;102855.44;4995760;28;20034;-78
2022/11/11 07:20:20;;;;;;;17.42;14.50;;;;;;;7.12;100.00;102850.19;4996026;28;20487;-77
2022/11/11 07:22:46;;;;;;;18.08;14.93;;;;;;;7.12;100.00;102854.59;4989311;28;20030;-84
2022/11/11 07:25:12;;;;;;;20.05;14.82;;;;;;;7.11;100.00;102863.34;4990113;28;20022;-84
2022/11/11 07:27:38;;;;;;;17.77;14.80;;;;;;;7.09;100.00;102875.59;4983765;28;20443;-77
2022/11/11 07:30:05;;;;;;;20.05;14.85;;;;;;;7.13;100.00;102872.00;4989211;28;20026;-77
2022/11/11 07:32:33;;;;;;;21.23;14.73;;;;;;;7.13;100.00;102878.09;4990843;28;20038;-84
2022/11/11 07:34:59;;;;;;;18.48;14.48;;;;;;;7.16;100.00;102861.44;4990728;28;20084;-84
2022/11/11 07:37:24;;;;;;;20.88;14.90;;;;;;;7.17;100.00;102869.25;4993417;28;20018;-77
2022/11/11 07:39:50;;;;;;;18.35;15.07;;;;;;;7.18;100.00;102872.72;5008253;28;20050;-84
2022/11/11 07:42:15;;;;;;;18.23;15.10;;;;;;;7.21;100.00;102877.91;4992813;28;20022;-85
2022/11/11 07:44:41;;;;;;;20.30;14.88;;;;;;;7.24;100.00;102880.44;4992814;28;20604;-87
2022/11/11 07:47:07;;;;;;;19.98;15.35;;;;;;;7.24;100.00;102875.22;4993857;28;20014;-78
2022/11/11 07:49:33;;;;;;;18.85;15.68;;;;;;;7.25;100.00;102870.84;5007136;28;20076;-77
2022/11/11 07:51:59;;;;;;;18.00;14.57;;;;;;;7.23;100.00;102884.81;4992459;28;20114;-76
2022/11/11 07:54:24;;;;;;;22.10;15.50;;;;;;;7.26;100.00;102886.50;4992957;28;20017;-76
2022/11/11 07:56:50;;;;;;;19.17;15.13;;;;;;;7.29;100.00;102893.41;4990504;28;20206;-76
2022/11/11 07:59:16;;;;;;;16.20;14.35;;;;;;;7.29;100.00;102907.34;4992983;28;20027;-77
2022/11/11 08:01:41;;;;;;;17.88;15.75;;;;;;;7.35;100.00;102903.72;4991916;28;20101;-77
2022/11/11 08:04:07;;;;;;;21.05;16.13;;;;;;;7.38;100.00;102904.47;4995006;28;20042;-77
2022/11/11 08:06:33;;;;;;;20.63;16.45;;;;;;;7.39;100.00;102910.56;4995303;28;20030;-77
2022/11/11 08:08:58;;;;;;;20.55;15.80;;;;;;;7.43;100.00;102917.44;4993642;28;20026;-77
2022/11/11 08:14:08;;;;;;;20.90;15.77;;;;;;;7.49;100.00;102920.75;4998191;28;20034;-76
2022/11/11 08:16:33;;;;;;;18.17;15.48;;;;;;;7.50;100.00;102922.47;4992319;28;20022;-77
2022/11/11 08:18:59;;;;;;;18.65;15.77;;;;;;;7.51;100.00;102918.09;4994527;28;20026;-76
2022/11/11 08:21:28;;;;;;;20.13;15.57;;;;;;;7.57;100.00;102927.53;4991981;28;20034;-75
2022/11/11 08:23:54;;;;;;;20.23;15.48;;;;;;;7.59;100.00;102925.72;4988309;28;20588;-76
2022/11/11 08:26:21;;;;;;;19.70;16.00;;;;;;;7.60;100.00;102927.44;4992874;28;20117;-76
2022/11/11 08:28:46;;;;;;;18.25;15.20;;;;;;;7.66;100.00;102929.91;4991706;28;20030;-75
2022/11/11 08:31:12;;;;;;;18.30;15.23;;;;;;;7.70;100.00;102942.03;4992723;28;20240;-76
2022/11/11 08:33:37;;;;;;;21.25;15.07;;;;;;;7.75;100.00;102934.88;4992437;28;20076;-76
2022/11/11 08:36:04;;;;;;;19.80;14.65;;;;;;;7.77;100.00;102952.28;4992293;28;20567;-76
2022/11/11 08:38:30;;;;;;;16.85;14.50;;;;;;;7.80;100.00;102949.56;4992016;28;20026;-76
2022/11/11 08:41:01;;;;;;;17.48;15.20;;;;;;;7.84;100.00;102953.81;4996006;28;20034;-76
2022/11/11 08:43:31;;;;;;;16.42;14.68;;;;;;;7.90;100.00;102949.31;4990887;28;20115;-76
2022/11/11 08:45:56;;;;;;;15.70;14.15;;;;;;;7.94;100.00;102951.78;4992150;28;20098;-78
2022/11/11 08:48:22;;;;;;;15.48;13.88;;;;;;;7.96;100.00;102957.84;4992534;28;20113;-78
2022/11/11 08:50:51;;;;;;;19.60;14.40;;;;;;;7.99;100.00;102965.63;4988855;28;20061;-84
2022/11/11 08:53:16;;;;;;;15.75;13.02;;;;;;;8.04;100.00;102947.16;4989366;28;20112;-78
2022/11/11 08:55:42;;;;;;;15.45;13.40;;;;;;;8.10;100.00;102952.22;4996930;28;20108;-78
2022/11/11 08:58:07;;;;;;;16.90;12.95;;;;;;;8.12;100.00;102953.88;5002058;28;20080;-77
2022/11/11 09:00:33;;;;;;;13.82;12.15;;;;;;;8.17;100.00;102961.59;4991948;28;20026;-78
2022/11/11 09:03:07;;;;;;;15.27;12.27;;;;;;;8.21;100.00;102967.63;4992093;28;20449;-85
2022/11/11 09:05:38;;;;;;;14.40;11.57;;;;;;;8.25;100.00;102949.13;4992093;28;20506;-77
2022/11/11 09:08:06;;;;;;;15.10;12.02;;;;;;;8.28;99.87;102954.25;4992772;28;20069;-77
2022/11/11 09:10:34;;;;;;;13.38;11.63;;;;;;;8.30;99.45;102951.59;5007538;28;20018;-76
2022/11/11 09:13:03;;;;;;;13.65;10.82;;;;;;;8.35;99.65;102952.34;4972266;28;20047;-77
2022/11/11 09:15:28;;;;;;;13.35;11.23;;;;;;;8.40;98.89;102960.91;4976689;28;20382;-77
2022/11/11 09:17:54;;;;;;;14.05;10.95;;;;;;;8.42;98.76;102960.00;4991089;28;20109;-77
2022/11/11 09:20:20;;;;;;;13.27;11.02;;;;;;;8.46;98.64;102966.00;4997335;28;20446;-77
2022/11/11 09:22:47;;;;;;;13.65;10.75;;;;;;;8.48;98.15;102964.19;5005213;28;20033;-85
2022/11/11 09:25:12;;;;;;;13.90;11.00;;;;;;;8.50;98.10;102957.13;4993512;28;20098;-77
2022/11/11 09:27:38;;;;;;;14.52;10.93;;;;;;;8.52;98.14;102960.56;4990633;28;20042;-76
2022/11/11 09:30:04;;;;;;;12.13;10.82;;;;;;;8.54;97.83;102969.25;4992098;28;20034;-77
2022/11/11 09:32:33;;;;;;;12.38;11.07;;;;;;;8.60;97.67;102970.81;4991528;28;20064;-76
2022/11/11 09:34:59;;;;;;;11.85;10.65;;;;;;;8.63;97.43;102968.94;4991118;28;20509;-77
2022/11/11 09:37:24;;;;;;;14.38;11.00;;;;;;;8.68;97.14;102967.03;4991661;28;20030;-77
2022/11/11 09:39:50;;;;;;;12.88;10.80;;;;;;;8.72;96.72;102973.91;4991122;28;20042;-77
2022/11/11 09:42:22;;;;;;;12.80;11.02;;;;;;;8.76;97.01;102975.50;4989894;28;20105;-85
2022/11/11 09:45:06;;;;;;;13.75;10.95;;;;;;;8.83;96.70;102975.34;4991088;28;20459;-85
2022/11/11 09:47:49;;;;;;;12.18;10.93;;;;;;;8.88;96.35;102978.66;4992137;28;20018;-77
2022/11/11 09:50:20;;;;;;;;;;;;;;;8.98;97.16;102982.69;4991231;28;20033;-78
2022/11/11 09:52:56;;;;;;;11.95;10.63;;;;;;;8.98;95.80;102974.81;4990284;28;19910;-76
2022/11/11 09:55:28;;;;;;;12.77;10.98;;;;;;;9.05;95.31;102978.97;4969452;28;20022;-75
2022/11/11 09:57:59;;;;;;;12.43;11.05;;;;;;;9.10;95.32;102982.28;4970765;28;20026;-77
2022/11/11 10:00:28;;;;;;;12.07;10.73;;;;;;;9.20;94.63;102980.19;4982249;28;20383;-77
2022/11/11 10:03:04;;;;;;;11.43;9.88;;;;;;;9.28;94.59;102978.19;4989116;28;20030;-77
2022/11/11 10:05:51;;;;;;;10.98;9.80;;;;;;;9.32;93.98;102985.91;4991316;28;20028;-77
2022/11/11 10:08:25;;;;;;;10.52;9.43;;;;;;;9.33;93.81;102977.13;4990568;28;20052;-77
2022/11/11 10:10:53;;;;;;;11.23;9.60;;;;;;;9.39;93.47;102987.41;4989570;28;20402;-77
2022/11/11 10:13:38;;;;;;;12.27;9.90;;;;;;;9.46;93.38;102987.19;4989204;28;20064;-77
2022/11/11 10:16:41;;;;;;;11.32;9.20;;;;;;;9.52;93.04;102982.56;4989630;28;20501;-75
2022/11/11 10:19:19;;;;;;;12.07;9.15;;;;;;;9.61;93.04;102986.69;4989798;28;20063;-77
2022/11/11 10:21:47;;;;;;;11.77;9.65;;;;;;;9.63;92.13;102993.59;4990451;28;20027;-77
2022/11/11 10:24:27;;;;;;;10.02;8.70;;;;;;;9.70;91.89;102986.34;4978057;28;20039;-77
2022/11/11 10:26:52;;;;;;;12.98;9.32;;;;;;;9.80;91.68;102977.19;4971286;28;20325;-77
2022/11/11 10:29:20;;;;;;;12.55;8.50;;;;;;;9.90;91.15;102981.19;4985711;28;20034;-76
2022/11/11 10:32:02;;;;;;;10.02;8.90;;;;;;;9.96;90.72;102983.59;4988015;28;20026;-77
2022/11/11 10:34:33;;;;;;;9.77;8.70;;;;;;;10.04;90.45;102978.94;4969290;28;20037;-76
2022/11/11 10:37:00;;;;;;;10.82;9.70;;;;;;;10.17;89.89;102988.97;4971026;28;20062;-77
2022/11/11 10:39:56;;;;;;;11.20;9.10;;;;;;;10.32;90.32;102985.78;4986878;28;20018;-76
2022/11/11 10:42:22;;;;;;;9.60;8.60;;;;;;;10.31;88.45;102979.66;4989785;28;20030;-84
2022/11/11 10:44:50;;;;;;;8.00;7.20;;;;;;;10.42;88.87;102979.28;4989521;28;20499;-76
2022/11/11 10:47:24;;;;;;;9.80;7.80;;;;;;;10.56;88.34;102990.09;4971829;28;20643;-76
2022/11/11 10:50:00;;;;;;;9.50;7.70;;;;;;;10.70;87.53;102980.78;4983225;28;20278;-76
2022/11/11 10:52:47;;;;;;;8.70;7.22;;;;;;;10.79;86.54;102985.69;4983187;28;20022;-76
2022/11/11 10:55:19;;;;;;;8.50;6.88;;;;;;;10.86;85.43;102984.53;4990344;28;20068;-84
2022/11/11 10:57:54;;;;;;;8.68;7.00;;;;;;;10.92;85.92;102984.28;4989938;28;20026;-84
2022/11/11 11:00:20;;;;;;;8.70;6.60;;;;;;;11.03;85.29;102989.09;4990353;28;20094;-84
2022/11/11 11:02:58;;;;;;;7.68;6.55;;;;;;;11.06;84.59;102979.28;4988913;28;20113;-76
2022/11/11 11:06:05;;;;;;;8.65;6.40;;;;;;;11.14;85.54;102976.34;4986501;28;20062;-75
2022/11/11 11:08:39;;;;;;;7.13;5.30;;;;;;;11.23;84.17;102982.09;4990667;28;20018;-76
2022/11/11 11:11:14;;;;;;;10.00;5.60;;;;;;;11.35;83.03;102979.84;4993014;28;20161;-84
2022/11/11 11:13:44;;;;;;;6.43;5.50;;;;;;;11.41;82.84;102980.44;4991170;28;20046;-76
2022/11/11 11:16:23;;;;;;;6.03;5.00;;;;;;;11.49;82.29;102973.03;4994426;28;20041;-77
2022/11/11 11:19:15;;;;;;;6.88;5.50;;;;;;;11.60;83.08;102970.78;4993288;28;20042;-77
2022/11/11 11:21:51;;;;;;;6.28;4.70;;;;;;;11.66;82.22;102969.69;4991665;28;20018;-76
2022/11/11 11:24:36;;;;;;;7.53;4.55;;;;;;;11.83;83.43;102961.88;4993607;28;20026;-76
2022/11/11 11:27:05;;;;;;;6.55;4.38;;;;;;;11.91;80.38;102965.03;4993251;28;20375;-83
2022/11/11 11:29:35;;;;;;;5.45;3.75;;;;;;;11.89;79.05;102955.47;4989152;28;20030;-83
2022/11/11 11:32:20;;;;;;;6.15;3.95;;;;;;;11.92;80.91;102961.47;4989152;28;20045;-83
2022/11/11 11:34:48;;;;;;;4.30;3.55;;;;;;;12.01;80.00;102961.97;4979882;28;20486;-83
2022/11/11 11:37:14;;;;;;;5.10;3.88;;;;;;;12.06;79.42;102966.13;5008197;28;20026;-76
2022/11/11 11:39:39;;;;;;;4.97;3.60;;;;;;;12.09;78.91;102957.22;4992189;28;20049;-76
2022/11/11 11:42:06;;;;;;;4.28;3.22;;;;;;;12.15;79.38;102956.91;4992810;28;20022;-76
2022/11/11 11:44:37;;;;;;;5.07;3.15;;;;;;;12.18;79.09;102962.06;4993053;28;20026;-75
2022/11/11 11:47:27;;;;;;;5.22;3.00;;;;;;;12.25;79.52;102952.91;5003503;28;20040;-76
2022/11/11 11:50:30;;;;;;;11.55;3.25;;;;;;;12.26;79.52;102957.25;5011117;28;20025;-76
2022/11/11 11:53:04;;;;;;;5.55;2.90;;;;;;;12.27;78.54;102961.63;4990874;28;20038;-76
2022/11/11 11:55:49;;;;;;;4.68;3.10;;;;;;;12.38;78.79;102958.47;4992531;28;20030;-76
2022/11/11 11:58:15;;;;;;;3.60;2.88;;;;;;;12.36;77.38;102945.34;5006291;28;20032;-82
2022/11/11 12:01:01;;;;;;;3.88;2.28;;;;;;;12.45;78.52;102944.91;4993103;28;20097;-83
2022/11/11 12:03:41;;;;;;;4.97;2.55;;;;;;;12.62;78.19;102945.88;4985972;28;20031;-76
2022/11/11 12:06:09;;;;;;;4.18;2.20;;;;;;;12.63;76.35;102950.22;4992951;28;20037;-75
2022/11/11 12:09:04;;;;;;;4.25;2.20;;;;;;;12.67;77.71;102949.13;4992783;28;20471;-75
2022/11/11 12:11:35;;;;;;;5.32;2.00;;;;;;;12.64;76.45;102942.22;4980580;28;20099;-77
2022/11/11 12:14:43;;;;;;;5.40;2.17;;;;;;;12.71;77.45;102940.13;4990311;28;20092;-74
2022/11/11 12:17:15;;;;;;;2.42;1.77;;;;;;;12.83;76.48;102936.91;4999439;28;20037;-75
2022/11/11 12:19:46;;;;;;;2.08;1.88;;;;;;;12.85;75.16;102924.47;4991871;28;20038;-74
2022/11/11 12:22:38;;;;;;;3.40;1.90;;;;;;;12.94;75.01;102931.06;4994058;28;20023;-74
2022/11/11 12:25:17;;;;;;;4.35;1.85;;;;;;;12.87;75.28;102930.53;4975517;28;20104;-75
2022/11/11 12:27:55;;;;;;;4.18;2.00;;;;;;;12.83;74.34;102934.25;4992069;28;20018;-75
2022/11/11 12:30:29;;;;;;;4.43;1.70;;;;;;;12.82;73.67;102932.56;4991986;28;20040;-75
2022/11/11 12:33:04;;;;;;;4.07;1.80;;;;;;;12.84;74.30;102926.25;4991948;28;20394;-75
2022/11/11 12:35:55;;;;;;;2.05;1.58;;;;;;;12.82;75.17;102924.63;4992766;28;20030;-75
2022/11/11 12:39:02;;;;;;;3.47;1.70;;;;;;;12.80;75.74;102926.44;4979323;28;20037;-76
2022/11/11 12:42:04;;;;;;;2.75;1.40;;;;;;;12.82;75.40;102917.56;5007402;28;20026;-82